sensor_id;sensor_type;location;lat;lon;timestamp;P1;durP1;ratioP1;P2;durP2;ratioP2
8628;SDS011;4352;49.404;11.092;2022-09-09T00:01:47;6.03;;;2.70;;
8628;SDS011;4352;49.404;11.092;2022-09-09T00:04:19;5.53;;;2.17;;
8628;SDS011;4352;49.404;11.092;2022-09-09T00:06:50;4.57;;;2.00;;
8628;SDS011;4352;49.404;11.092;2022-09-09T00:09:24;6.53;;;2.50;;
8628;SDS011;4352;49.404;11.092;2022-09-09T00:11:52;4.60;;;2.10;;
8628;SDS011;4352;49.404;11.092;2022-09-09T00:14:22;3.33;;;2.27;;
8628;SDS011;4352;49.404;11.092;2022-09-09T00:16:52;2.80;;;1.80;;
8628;SDS011;4352;49.404;11.092;2022-09-09T00:19:22;3.30;;;2.30;;
8628;SDS011;4352;49.404;11.092;2022-09-09T00:21:52;4.27;;;2.33;;
8628;SDS011;4352;49.404;11.092;2022-09-09T00:24:26;3.13;;;2.10;;
8628;SDS011;4352;49.404;11.092;2022-09-09T00:26:56;4.97;;;2.30;;
8628;SDS011;4352;49.404;11.092;2022-09-09T00:29:25;2.53;;;2.03;;
8628;SDS011;4352;49.404;11.092;2022-09-09T00:31:57;3.47;;;2.00;;
8628;SDS011;4352;49.404;11.092;2022-09-09T00:34:28;2.53;;;2.33;;
8628;SDS011;4352;49.404;11.092;2022-09-09T00:36:56;4.30;;;2.33;;
8628;SDS011;4352;49.404;11.092;2022-09-09T00:39:25;3.67;;;2.03;;
8628;SDS011;4352;49.404;11.092;2022-09-09T00:41:57;4.37;;;2.10;;
8628;SDS011;4352;49.404;11.092;2022-09-09T00:44:30;4.57;;;2.20;;
8628;SDS011;4352;49.404;11.092;2022-09-09T00:47:04;4.40;;;2.20;;
8628;SDS011;4352;49.404;11.092;2022-09-09T00:49:36;5.97;;;2.20;;
8628;SDS011;4352;49.404;11.092;2022-09-09T00:52:11;3.77;;;1.73;;
8628;SDS011;4352;49.404;11.092;2022-09-09T00:54:45;3.53;;;2.40;;
8628;SDS011;4352;49.404;11.092;2022-09-09T00:57:19;5.50;;;2.70;;
8628;SDS011;4352;49.404;11.092;2022-09-09T00:59:51;3.00;;;2.20;;
8628;SDS011;4352;49.404;11.092;2022-09-09T01:02:22;2.93;;;2.03;;
8628;SDS011;4352;49.404;11.092;2022-09-09T01:04:53;4.03;;;2.33;;
8628;SDS011;4352;49.404;11.092;2022-09-09T01:07:20;4.83;;;2.17;;
8628;SDS011;4352;49.404;11.092;2022-09-09T01:09:53;4.10;;;2.40;;
8628;SDS011;4352;49.404;11.092;2022-09-09T01:12:25;4.80;;;2.20;;
8628;SDS011;4352;49.404;11.092;2022-09-09T01:14:54;7.20;;;2.40;;
8628;SDS011;4352;49.404;11.092;2022-09-09T01:17:24;4.00;;;2.20;;
8628;SDS011;4352;49.404;11.092;2022-09-09T01:19:59;3.27;;;2.40;;
8628;SDS011;4352;49.404;11.092;2022-09-09T01:22:32;4.47;;;2.30;;
8628;SDS011;4352;49.404;11.092;2022-09-09T01:25:15;4.13;;;2.10;;
8628;SDS011;4352;49.404;11.092;2022-09-09T01:27:47;3.10;;;1.90;;
8628;SDS011;4352;49.404;11.092;2022-09-09T01:30:15;7.97;;;2.73;;
8628;SDS011;4352;49.404;11.092;2022-09-09T01:32:44;3.40;;;2.13;;
8628;SDS011;4352;49.404;11.092;2022-09-09T01:35:12;5.13;;;2.30;;
8628;SDS011;4352;49.404;11.092;2022-09-09T01:37:41;4.00;;;2.10;;
8628;SDS011;4352;49.404;11.092;2022-09-09T01:40:09;3.37;;;2.20;;
8628;SDS011;4352;49.404;11.092;2022-09-09T01:42:36;4.50;;;1.93;;
8628;SDS011;4352;49.404;11.092;2022-09-09T01:45:05;5.30;;;2.30;;
8628;SDS011;4352;49.404;11.092;2022-09-09T01:47:32;3.97;;;2.40;;
8628;SDS011;4352;49.404;11.092;2022-09-09T01:50:00;5.43;;;2.33;;
8628;SDS011;4352;49.404;11.092;2022-09-09T01:52:28;5.07;;;2.40;;
8628;SDS011;4352;49.404;11.092;2022-09-09T01:54:55;3.83;;;2.40;;
8628;SDS011;4352;49.404;11.092;2022-09-09T01:57:23;6.90;;;2.63;;
8628;SDS011;4352;49.404;11.092;2022-09-09T01:59:54;3.20;;;2.43;;
8628;SDS011;4352;49.404;11.092;2022-09-09T02:02:29;2.83;;;2.20;;
8628;SDS011;4352;49.404;11.092;2022-09-09T02:04:59;2.90;;;2.50;;
8628;SDS011;4352;49.404;11.092;2022-09-09T02:07:30;9.07;;;2.83;;
8628;SDS011;4352;49.404;11.092;2022-09-09T02:10:00;4.23;;;2.20;;
8628;SDS011;4352;49.404;11.092;2022-09-09T02:12:28;5.63;;;2.97;;
8628;SDS011;4352;49.404;11.092;2022-09-09T02:14:59;5.73;;;2.27;;
8628;SDS011;4352;49.404;11.092;2022-09-09T02:17:30;6.00;;;2.40;;
8628;SDS011;4352;49.404;11.092;2022-09-09T02:19:59;4.23;;;2.80;;
8628;SDS011;4352;49.404;11.092;2022-09-09T02:22:29;4.60;;;2.73;;
8628;SDS011;4352;49.404;11.092;2022-09-09T02:24:59;3.80;;;2.57;;
8628;SDS011;4352;49.404;11.092;2022-09-09T02:27:26;2.50;;;2.20;;
8628;SDS011;4352;49.404;11.092;2022-09-09T02:29:54;4.93;;;2.40;;
8628;SDS011;4352;49.404;11.092;2022-09-09T02:32:23;3.03;;;2.20;;
8628;SDS011;4352;49.404;11.092;2022-09-09T02:34:53;3.67;;;2.50;;
8628;SDS011;4352;49.404;11.092;2022-09-09T02:37:23;6.07;;;2.57;;
8628;SDS011;4352;49.404;11.092;2022-09-09T02:39:53;4.00;;;2.20;;
8628;SDS011;4352;49.404;11.092;2022-09-09T02:42:20;3.40;;;2.50;;
8628;SDS011;4352;49.404;11.092;2022-09-09T02:44:49;3.40;;;2.07;;
8628;SDS011;4352;49.404;11.092;2022-09-09T02:47:19;3.93;;;2.30;;
8628;SDS011;4352;49.404;11.092;2022-09-09T02:49:51;6.07;;;2.40;;
8628;SDS011;4352;49.404;11.092;2022-09-09T02:52:24;2.90;;;1.97;;
8628;SDS011;4352;49.404;11.092;2022-09-09T02:54:54;2.53;;;1.90;;
8628;SDS011;4352;49.404;11.092;2022-09-09T02:57:25;3.33;;;2.20;;
8628;SDS011;4352;49.404;11.092;2022-09-09T02:59:56;4.27;;;2.17;;
8628;SDS011;4352;49.404;11.092;2022-09-09T03:02:23;3.27;;;2.00;;
8628;SDS011;4352;49.404;11.092;2022-09-09T03:04:50;2.47;;;1.90;;
8628;SDS011;4352;49.404;11.092;2022-09-09T03:07:18;3.40;;;2.10;;
8628;SDS011;4352;49.404;11.092;2022-09-09T03:09:46;2.43;;;1.97;;
8628;SDS011;4352;49.404;11.092;2022-09-09T03:12:13;5.00;;;2.03;;
8628;SDS011;4352;49.404;11.092;2022-09-09T03:14:41;2.40;;;1.87;;
8628;SDS011;4352;49.404;11.092;2022-09-09T03:17:10;3.37;;;2.10;;
8628;SDS011;4352;49.404;11.092;2022-09-09T03:19:37;2.53;;;1.90;;
8628;SDS011;4352;49.404;11.092;2022-09-09T03:22:04;4.60;;;1.93;;
8628;SDS011;4352;49.404;11.092;2022-09-09T03:24:32;6.17;;;2.20;;
8628;SDS011;4352;49.404;11.092;2022-09-09T03:27:00;2.70;;;1.97;;
8628;SDS011;4352;49.404;11.092;2022-09-09T03:29:27;3.83;;;2.10;;
8628;SDS011;4352;49.404;11.092;2022-09-09T03:31:55;4.30;;;2.10;;
8628;SDS011;4352;49.404;11.092;2022-09-09T03:34:23;4.37;;;1.93;;
8628;SDS011;4352;49.404;11.092;2022-09-09T03:36:50;3.97;;;2.40;;
8628;SDS011;4352;49.404;11.092;2022-09-09T03:39:17;5.13;;;2.13;;
8628;SDS011;4352;49.404;11.092;2022-09-09T03:41:44;3.57;;;2.27;;
8628;SDS011;4352;49.404;11.092;2022-09-09T03:44:14;7.00;;;2.53;;
8628;SDS011;4352;49.404;11.092;2022-09-09T03:46:41;3.80;;;2.10;;
8628;SDS011;4352;49.404;11.092;2022-09-09T03:49:08;4.67;;;2.50;;
8628;SDS011;4352;49.404;11.092;2022-09-09T03:51:36;2.47;;;2.17;;
8628;SDS011;4352;49.404;11.092;2022-09-09T03:54:03;4.27;;;2.27;;
8628;SDS011;4352;49.404;11.092;2022-09-09T03:56:33;5.33;;;2.37;;
8628;SDS011;4352;49.404;11.092;2022-09-09T03:59:00;2.97;;;2.40;;
8628;SDS011;4352;49.404;11.092;2022-09-09T04:01:28;4.77;;;2.83;;
8628;SDS011;4352;49.404;11.092;2022-09-09T04:03:56;5.43;;;2.30;;
8628;SDS011;4352;49.404;11.092;2022-09-09T04:06:23;4.67;;;2.23;;
8628;SDS011;4352;49.404;11.092;2022-09-09T04:08:50;4.53;;;2.50;;
8628;SDS011;4352;49.404;11.092;2022-09-09T04:11:18;3.90;;;2.50;;
8628;SDS011;4352;49.404;11.092;2022-09-09T04:13:45;2.93;;;2.30;;
8628;SDS011;4352;49.404;11.092;2022-09-09T04:16:12;4.43;;;2.27;;
8628;SDS011;4352;49.404;11.092;2022-09-09T04:18:41;3.80;;;2.63;;
8628;SDS011;4352;49.404;11.092;2022-09-09T04:21:08;3.83;;;2.40;;
8628;SDS011;4352;49.404;11.092;2022-09-09T04:23:37;3.00;;;2.30;;
8628;SDS011;4352;49.404;11.092;2022-09-09T04:26:04;5.07;;;2.37;;
8628;SDS011;4352;49.404;11.092;2022-09-09T04:28:32;4.37;;;2.37;;
8628;SDS011;4352;49.404;11.092;2022-09-09T04:31:03;4.07;;;2.30;;
8628;SDS011;4352;49.404;11.092;2022-09-09T04:33:30;7.67;;;2.63;;
8628;SDS011;4352;49.404;11.092;2022-09-09T04:35:59;3.27;;;2.70;;
8628;SDS011;4352;49.404;11.092;2022-09-09T04:38:26;5.13;;;3.03;;
8628;SDS011;4352;49.404;11.092;2022-09-09T04:40:54;4.17;;;2.10;;
8628;SDS011;4352;49.404;11.092;2022-09-09T04:43:22;3.90;;;2.57;;
8628;SDS011;4352;49.404;11.092;2022-09-09T04:45:50;6.27;;;2.73;;
8628;SDS011;4352;49.404;11.092;2022-09-09T04:48:18;6.47;;;2.50;;
8628;SDS011;4352;49.404;11.092;2022-09-09T04:50:53;3.77;;;2.60;;
8628;SDS011;4352;49.404;11.092;2022-09-09T04:53:21;4.07;;;2.20;;
8628;SDS011;4352;49.404;11.092;2022-09-09T04:55:48;4.70;;;2.40;;
8628;SDS011;4352;49.404;11.092;2022-09-09T04:58:15;3.70;;;2.40;;
8628;SDS011;4352;49.404;11.092;2022-09-09T05:00:43;3.43;;;2.20;;
8628;SDS011;4352;49.404;11.092;2022-09-09T05:03:10;3.17;;;2.40;;
8628;SDS011;4352;49.404;11.092;2022-09-09T05:05:37;7.53;;;2.30;;
8628;SDS011;4352;49.404;11.092;2022-09-09T05:08:05;4.43;;;2.40;;
8628;SDS011;4352;49.404;11.092;2022-09-09T05:10:36;5.33;;;2.00;;
8628;SDS011;4352;49.404;11.092;2022-09-09T05:13:03;3.07;;;2.20;;
8628;SDS011;4352;49.404;11.092;2022-09-09T05:15:31;3.90;;;2.10;;
8628;SDS011;4352;49.404;11.092;2022-09-09T05:17:58;5.03;;;2.20;;
8628;SDS011;4352;49.404;11.092;2022-09-09T05:20:26;6.30;;;2.80;;
8628;SDS011;4352;49.404;11.092;2022-09-09T05:22:53;4.27;;;2.33;;
8628;SDS011;4352;49.404;11.092;2022-09-09T05:25:21;4.53;;;2.60;;
8628;SDS011;4352;49.404;11.092;2022-09-09T05:27:52;4.90;;;2.40;;
8628;SDS011;4352;49.404;11.092;2022-09-09T05:30:20;5.07;;;2.53;;
8628;SDS011;4352;49.404;11.092;2022-09-09T05:32:47;7.53;;;2.90;;
8628;SDS011;4352;49.404;11.092;2022-09-09T05:35:15;4.60;;;2.63;;
8628;SDS011;4352;49.404;11.092;2022-09-09T05:37:44;5.83;;;2.87;;
8628;SDS011;4352;49.404;11.092;2022-09-09T05:40:11;5.23;;;2.77;;
8628;SDS011;4352;49.404;11.092;2022-09-09T05:42:38;5.07;;;2.40;;
8628;SDS011;4352;49.404;11.092;2022-09-09T05:45:07;4.23;;;2.50;;
8628;SDS011;4352;49.404;11.092;2022-09-09T05:47:35;5.20;;;2.50;;
8628;SDS011;4352;49.404;11.092;2022-09-09T05:50:02;5.50;;;2.80;;
8628;SDS011;4352;49.404;11.092;2022-09-09T05:52:30;5.00;;;2.73;;
8628;SDS011;4352;49.404;11.092;2022-09-09T05:54:57;4.20;;;2.20;;
8628;SDS011;4352;49.404;11.092;2022-09-09T05:57:24;6.03;;;2.60;;
8628;SDS011;4352;49.404;11.092;2022-09-09T05:59:52;4.40;;;2.20;;
8628;SDS011;4352;49.404;11.092;2022-09-09T06:02:21;5.67;;;2.27;;
8628;SDS011;4352;49.404;11.092;2022-09-09T06:04:48;3.47;;;2.10;;
8628;SDS011;4352;49.404;11.092;2022-09-09T06:07:15;5.67;;;2.27;;
8628;SDS011;4352;49.404;11.092;2022-09-09T06:09:42;5.50;;;2.40;;
8628;SDS011;4352;49.404;11.092;2022-09-09T06:12:09;6.07;;;2.50;;
8628;SDS011;4352;49.404;11.092;2022-09-09T06:14:37;6.00;;;2.40;;
8628;SDS011;4352;49.404;11.092;2022-09-09T06:17:04;5.77;;;2.20;;
8628;SDS011;4352;49.404;11.092;2022-09-09T06:19:32;2.47;;;2.13;;
8628;SDS011;4352;49.404;11.092;2022-09-09T06:22:00;3.63;;;2.10;;
8628;SDS011;4352;49.404;11.092;2022-09-09T06:24:27;6.13;;;2.33;;
8628;SDS011;4352;49.404;11.092;2022-09-09T06:26:55;5.57;;;2.23;;
8628;SDS011;4352;49.404;11.092;2022-09-09T06:29:23;8.07;;;2.20;;
8628;SDS011;4352;49.404;11.092;2022-09-09T06:31:50;3.83;;;1.93;;
8628;SDS011;4352;49.404;11.092;2022-09-09T06:34:17;6.80;;;2.00;;
8628;SDS011;4352;49.404;11.092;2022-09-09T06:36:45;3.63;;;1.97;;
8628;SDS011;4352;49.404;11.092;2022-09-09T06:39:12;4.80;;;2.53;;
8628;SDS011;4352;49.404;11.092;2022-09-09T06:41:40;4.20;;;1.60;;
8628;SDS011;4352;49.404;11.092;2022-09-09T06:44:08;6.50;;;2.13;;
8628;SDS011;4352;49.404;11.092;2022-09-09T06:46:36;5.13;;;1.90;;
8628;SDS011;4352;49.404;11.092;2022-09-09T06:49:04;6.23;;;1.83;;
8628;SDS011;4352;49.404;11.092;2022-09-09T06:51:33;5.77;;;2.37;;
8628;SDS011;4352;49.404;11.092;2022-09-09T06:54:02;4.53;;;1.77;;
8628;SDS011;4352;49.404;11.092;2022-09-09T06:56:30;4.70;;;2.00;;
8628;SDS011;4352;49.404;11.092;2022-09-09T06:58:58;2.97;;;1.60;;
8628;SDS011;4352;49.404;11.092;2022-09-09T07:01:29;4.50;;;1.60;;
8628;SDS011;4352;49.404;11.092;2022-09-09T07:03:57;2.30;;;1.90;;
8628;SDS011;4352;49.404;11.092;2022-09-09T07:06:26;3.10;;;1.80;;
8628;SDS011;4352;49.404;11.092;2022-09-09T07:08:54;4.87;;;1.93;;
8628;SDS011;4352;49.404;11.092;2022-09-09T07:11:24;8.33;;;1.90;;
8628;SDS011;4352;49.404;11.092;2022-09-09T07:13:52;5.50;;;1.70;;
8628;SDS011;4352;49.404;11.092;2022-09-09T07:16:19;3.47;;;1.70;;
8628;SDS011;4352;49.404;11.092;2022-09-09T07:18:48;3.80;;;1.60;;
8628;SDS011;4352;49.404;11.092;2022-09-09T07:21:16;5.10;;;1.60;;
8628;SDS011;4352;49.404;11.092;2022-09-09T07:23:43;2.97;;;1.60;;
8628;SDS011;4352;49.404;11.092;2022-09-09T07:26:11;7.17;;;1.93;;
8628;SDS011;4352;49.404;11.092;2022-09-09T07:28:40;15.43;;;2.20;;
8628;SDS011;4352;49.404;11.092;2022-09-09T07:31:12;3.63;;;1.93;;
8628;SDS011;4352;49.404;11.092;2022-09-09T07:33:40;5.03;;;1.90;;
8628;SDS011;4352;49.404;11.092;2022-09-09T07:36:08;2.77;;;1.53;;
8628;SDS011;4352;49.404;11.092;2022-09-09T07:38:39;4.33;;;1.70;;
8628;SDS011;4352;49.404;11.092;2022-09-09T07:41:06;4.80;;;2.37;;
8628;SDS011;4352;49.404;11.092;2022-09-09T07:43:37;5.30;;;1.70;;
8628;SDS011;4352;49.404;11.092;2022-09-09T07:46:06;3.40;;;1.70;;
8628;SDS011;4352;49.404;11.092;2022-09-09T07:48:33;2.87;;;1.60;;
8628;SDS011;4352;49.404;11.092;2022-09-09T07:51:07;5.43;;;1.50;;
8628;SDS011;4352;49.404;11.092;2022-09-09T07:53:35;5.63;;;1.80;;
8628;SDS011;4352;49.404;11.092;2022-09-09T07:56:04;2.33;;;1.47;;
8628;SDS011;4352;49.404;11.092;2022-09-09T07:58:31;4.80;;;1.63;;
8628;SDS011;4352;49.404;11.092;2022-09-09T08:00:58;3.27;;;1.70;;
8628;SDS011;4352;49.404;11.092;2022-09-09T08:03:26;2.47;;;1.57;;
8628;SDS011;4352;49.404;11.092;2022-09-09T08:05:59;2.87;;;1.53;;
8628;SDS011;4352;49.404;11.092;2022-09-09T08:08:27;2.50;;;1.50;;
8628;SDS011;4352;49.404;11.092;2022-09-09T08:11:00;3.50;;;1.50;;
8628;SDS011;4352;49.404;11.092;2022-09-09T08:13:28;6.67;;;2.10;;
8628;SDS011;4352;49.404;11.092;2022-09-09T08:16:02;4.93;;;1.60;;
8628;SDS011;4352;49.404;11.092;2022-09-09T08:18:31;3.50;;;1.60;;
8628;SDS011;4352;49.404;11.092;2022-09-09T08:21:04;2.47;;;1.50;;
8628;SDS011;4352;49.404;11.092;2022-09-09T08:23:31;4.50;;;1.60;;
8628;SDS011;4352;49.404;11.092;2022-09-09T08:26:02;3.40;;;1.50;;
8628;SDS011;4352;49.404;11.092;2022-09-09T08:28:30;3.20;;;1.63;;
8628;SDS011;4352;49.404;11.092;2022-09-09T08:31:04;3.77;;;1.47;;
8628;SDS011;4352;49.404;11.092;2022-09-09T08:33:33;7.23;;;1.47;;
8628;SDS011;4352;49.404;11.092;2022-09-09T08:36:02;4.73;;;1.70;;
8628;SDS011;4352;49.404;11.092;2022-09-09T08:38:29;5.03;;;1.67;;
8628;SDS011;4352;49.404;11.092;2022-09-09T08:40:58;3.60;;;1.47;;
8628;SDS011;4352;49.404;11.092;2022-09-09T08:43:26;3.77;;;1.70;;
8628;SDS011;4352;49.404;11.092;2022-09-09T08:45:55;4.47;;;1.67;;
8628;SDS011;4352;49.404;11.092;2022-09-09T08:48:30;2.53;;;1.50;;
8628;SDS011;4352;49.404;11.092;2022-09-09T08:51:01;4.27;;;1.77;;
8628;SDS011;4352;49.404;11.092;2022-09-09T08:53:28;5.97;;;1.65;;
8628;SDS011;4352;49.404;11.092;2022-09-09T08:55:57;3.50;;;1.60;;
8628;SDS011;4352;49.404;11.092;2022-09-09T08:58:25;2.47;;;1.30;;
8628;SDS011;4352;49.404;11.092;2022-09-09T09:00:57;3.47;;;1.40;;
8628;SDS011;4352;49.404;11.092;2022-09-09T09:03:31;2.65;;;1.17;;
8628;SDS011;4352;49.404;11.092;2022-09-09T09:06:04;3.35;;;1.40;;
8628;SDS011;4352;49.404;11.092;2022-09-09T09:08:35;3.08;;;1.17;;
8628;SDS011;4352;49.404;11.092;2022-09-09T09:11:04;2.60;;;1.45;;
8628;SDS011;4352;49.404;11.092;2022-09-09T09:13:33;3.13;;;1.30;;
8628;SDS011;4352;49.404;11.092;2022-09-09T09:16:03;2.25;;;1.20;;
8628;SDS011;4352;49.404;11.092;2022-09-09T09:18:33;3.15;;;1.48;;
8628;SDS011;4352;49.404;11.092;2022-09-09T09:21:05;3.50;;;1.13;;
8628;SDS011;4352;49.404;11.092;2022-09-09T09:23:36;3.10;;;1.20;;
8628;SDS011;4352;49.404;11.092;2022-09-09T09:26:06;3.55;;;1.50;;
8628;SDS011;4352;49.404;11.092;2022-09-09T09:28:42;3.25;;;1.20;;
8628;SDS011;4352;49.404;11.092;2022-09-09T09:31:09;2.67;;;1.30;;
8628;SDS011;4352;49.404;11.092;2022-09-09T09:33:38;1.35;;;1.10;;
8628;SDS011;4352;49.404;11.092;2022-09-09T09:36:10;3.00;;;1.25;;
8628;SDS011;4352;49.404;11.092;2022-09-09T09:38:40;3.03;;;1.40;;
8628;SDS011;4352;49.404;11.092;2022-09-09T09:41:20;1.20;;;1.10;;
8628;SDS011;4352;49.404;11.092;2022-09-09T09:43:55;3.10;;;1.27;;
8628;SDS011;4352;49.404;11.092;2022-09-09T09:46:23;2.25;;;1.30;;
8628;SDS011;4352;49.404;11.092;2022-09-09T09:48:56;2.42;;;1.30;;
8628;SDS011;4352;49.404;11.092;2022-09-09T09:51:24;3.95;;;1.20;;
8628;SDS011;4352;49.404;11.092;2022-09-09T09:53:51;2.72;;;1.45;;
8628;SDS011;4352;49.404;11.092;2022-09-09T09:56:25;2.03;;;1.20;;
8628;SDS011;4352;49.404;11.092;2022-09-09T09:58:53;3.72;;;1.60;;
8628;SDS011;4352;49.404;11.092;2022-09-09T10:01:22;2.47;;;1.27;;
8628;SDS011;4352;49.404;11.092;2022-09-09T10:03:50;2.15;;;1.38;;
8628;SDS011;4352;49.404;11.092;2022-09-09T10:06:28;2.13;;;1.30;;
8628;SDS011;4352;49.404;11.092;2022-09-09T10:08:57;2.55;;;1.23;;
8628;SDS011;4352;49.404;11.092;2022-09-09T10:11:30;2.13;;;1.10;;
8628;SDS011;4352;49.404;11.092;2022-09-09T10:14:05;2.10;;;1.25;;
8628;SDS011;4352;49.404;11.092;2022-09-09T10:16:39;2.50;;;1.40;;
8628;SDS011;4352;49.404;11.092;2022-09-09T10:19:09;2.03;;;1.48;;
8628;SDS011;4352;49.404;11.092;2022-09-09T10:21:56;4.88;;;1.60;;
8628;SDS011;4352;49.404;11.092;2022-09-09T10:24:39;4.22;;;1.30;;
8628;SDS011;4352;49.404;11.092;2022-09-09T10:27:11;1.95;;;1.10;;
8628;SDS011;4352;49.404;11.092;2022-09-09T10:29:46;2.45;;;1.50;;
8628;SDS011;4352;49.404;11.092;2022-09-09T10:32:22;3.75;;;1.17;;
8628;SDS011;4352;49.404;11.092;2022-09-09T10:34:55;4.75;;;1.35;;
8628;SDS011;4352;49.404;11.092;2022-09-09T10:37:31;3.17;;;1.45;;
8628;SDS011;4352;49.404;11.092;2022-09-09T10:40:02;2.95;;;1.40;;
8628;SDS011;4352;49.404;11.092;2022-09-09T10:42:31;2.38;;;1.40;;
8628;SDS011;4352;49.404;11.092;2022-09-09T10:45:02;2.10;;;1.30;;
8628;SDS011;4352;49.404;11.092;2022-09-09T10:47:42;2.65;;;1.42;;
8628;SDS011;4352;49.404;11.092;2022-09-09T10:53:13;2.40;;;1.10;;
8628;SDS011;4352;49.404;11.092;2022-09-09T10:55:43;2.10;;;1.15;;
8628;SDS011;4352;49.404;11.092;2022-09-09T10:58:12;9.35;;;1.73;;
8628;SDS011;4352;49.404;11.092;2022-09-09T11:00:41;4.72;;;1.30;;
8628;SDS011;4352;49.404;11.092;2022-09-09T11:03:12;3.28;;;1.17;;
8628;SDS011;4352;49.404;11.092;2022-09-09T11:05:44;3.20;;;1.40;;
8628;SDS011;4352;49.404;11.092;2022-09-09T11:08:14;4.33;;;1.37;;
8628;SDS011;4352;49.404;11.092;2022-09-09T11:10:45;5.10;;;1.30;;
8628;SDS011;4352;49.404;11.092;2022-09-09T11:13:18;2.70;;;1.40;;
8628;SDS011;4352;49.404;11.092;2022-09-09T11:15:49;4.20;;;1.40;;
8628;SDS011;4352;49.404;11.092;2022-09-09T11:18:19;4.37;;;1.27;;
8628;SDS011;4352;49.404;11.092;2022-09-09T11:20:46;4.50;;;1.80;;
8628;SDS011;4352;49.404;11.092;2022-09-09T11:23:15;4.23;;;1.23;;
8628;SDS011;4352;49.404;11.092;2022-09-09T11:25:46;2.63;;;1.27;;
8628;SDS011;4352;49.404;11.092;2022-09-09T11:33:54;2.83;;;1.20;;
8628;SDS011;4352;49.404;11.092;2022-09-09T11:36:36;2.27;;;1.00;;
8628;SDS011;4352;49.404;11.092;2022-09-09T11:39:09;2.77;;;1.50;;
8628;SDS011;4352;49.404;11.092;2022-09-09T11:41:44;4.13;;;1.45;;
8628;SDS011;4352;49.404;11.092;2022-09-09T11:44:11;5.07;;;1.50;;
8628;SDS011;4352;49.404;11.092;2022-09-09T11:46:39;2.15;;;1.13;;
8628;SDS011;4352;49.404;11.092;2022-09-09T11:49:21;3.05;;;1.50;;
8628;SDS011;4352;49.404;11.092;2022-09-09T11:51:51;2.17;;;1.25;;
8628;SDS011;4352;49.404;11.092;2022-09-09T11:54:26;3.97;;;1.70;;
8628;SDS011;4352;49.404;11.092;2022-09-09T11:56:56;2.30;;;1.50;;
8628;SDS011;4352;49.404;11.092;2022-09-09T11:59:24;2.50;;;1.30;;
8628;SDS011;4352;49.404;11.092;2022-09-09T12:01:54;1.57;;;1.03;;
8628;SDS011;4352;49.404;11.092;2022-09-09T12:04:27;2.77;;;1.20;;
8628;SDS011;4352;49.404;11.092;2022-09-09T12:06:56;3.00;;;1.23;;
8628;SDS011;4352;49.404;11.092;2022-09-09T12:09:26;2.97;;;1.30;;
8628;SDS011;4352;49.404;11.092;2022-09-09T12:12:05;2.50;;;1.30;;
8628;SDS011;4352;49.404;11.092;2022-09-09T12:14:37;3.40;;;1.37;;
8628;SDS011;4352;49.404;11.092;2022-09-09T12:17:17;3.37;;;1.40;;
8628;SDS011;4352;49.404;11.092;2022-09-09T12:19:46;2.57;;;1.20;;
8628;SDS011;4352;49.404;11.092;2022-09-09T12:22:16;2.23;;;0.97;;
8628;SDS011;4352;49.404;11.092;2022-09-09T12:24:48;2.87;;;1.20;;
8628;SDS011;4352;49.404;11.092;2022-09-09T12:27:20;1.63;;;1.00;;
8628;SDS011;4352;49.404;11.092;2022-09-09T12:29:52;1.08;;;0.93;;
8628;SDS011;4352;49.404;11.092;2022-09-09T12:32:23;1.85;;;1.08;;
8628;SDS011;4352;49.404;11.092;2022-09-09T12:34:52;3.85;;;1.13;;
8628;SDS011;4352;49.404;11.092;2022-09-09T12:37:21;2.70;;;1.23;;
8628;SDS011;4352;49.404;11.092;2022-09-09T12:39:53;1.33;;;0.88;;
8628;SDS011;4352;49.404;11.092;2022-09-09T12:42:23;1.92;;;1.40;;
8628;SDS011;4352;49.404;11.092;2022-09-09T12:44:51;3.67;;;1.50;;
8628;SDS011;4352;49.404;11.092;2022-09-09T12:47:19;2.83;;;1.50;;
8628;SDS011;4352;49.404;11.092;2022-09-09T12:49:47;5.78;;;1.50;;
8628;SDS011;4352;49.404;11.092;2022-09-09T12:52:17;3.08;;;1.17;;
8628;SDS011;4352;49.404;11.092;2022-09-09T12:54:47;4.20;;;1.40;;
8628;SDS011;4352;49.404;11.092;2022-09-09T12:57:16;2.00;;;1.40;;
8628;SDS011;4352;49.404;11.092;2022-09-09T12:59:45;2.00;;;1.17;;
8628;SDS011;4352;49.404;11.092;2022-09-09T13:02:17;2.25;;;1.40;;
8628;SDS011;4352;49.404;11.092;2022-09-09T13:04:45;2.92;;;1.20;;
8628;SDS011;4352;49.404;11.092;2022-09-09T13:07:12;3.28;;;1.55;;
8628;SDS011;4352;49.404;11.092;2022-09-09T13:09:41;4.53;;;1.20;;
8628;SDS011;4352;49.404;11.092;2022-09-09T13:12:11;4.10;;;1.00;;
8628;SDS011;4352;49.404;11.092;2022-09-09T13:14:40;8.13;;;1.70;;
8628;SDS011;4352;49.404;11.092;2022-09-09T13:17:17;17.07;;;3.00;;
8628;SDS011;4352;49.404;11.092;2022-09-09T13:19:46;4.00;;;1.90;;
8628;SDS011;4352;49.404;11.092;2022-09-09T13:22:19;2.67;;;1.50;;
8628;SDS011;4352;49.404;11.092;2022-09-09T13:24:47;3.33;;;1.60;;
8628;SDS011;4352;49.404;11.092;2022-09-09T13:27:23;2.80;;;1.40;;
8628;SDS011;4352;49.404;11.092;2022-09-09T13:29:53;3.90;;;1.40;;
8628;SDS011;4352;49.404;11.092;2022-09-09T13:32:23;3.13;;;1.30;;
8628;SDS011;4352;49.404;11.092;2022-09-09T13:34:52;4.15;;;1.63;;
8628;SDS011;4352;49.404;11.092;2022-09-09T13:37:21;3.78;;;1.38;;
8628;SDS011;4352;49.404;11.092;2022-09-09T13:39:51;1.55;;;1.20;;
8628;SDS011;4352;49.404;11.092;2022-09-09T13:42:22;2.45;;;1.40;;
8628;SDS011;4352;49.404;11.092;2022-09-09T13:44:51;3.10;;;1.20;;
8628;SDS011;4352;49.404;11.092;2022-09-09T13:47:19;3.33;;;1.38;;
8628;SDS011;4352;49.404;11.092;2022-09-09T13:49:47;3.63;;;1.25;;
8628;SDS011;4352;49.404;11.092;2022-09-09T13:52:15;2.58;;;1.23;;
8628;SDS011;4352;49.404;11.092;2022-09-09T13:54:46;1.92;;;1.20;;
8628;SDS011;4352;49.404;11.092;2022-09-09T13:57:15;2.20;;;1.13;;
8628;SDS011;4352;49.404;11.092;2022-09-09T13:59:43;1.55;;;1.00;;
8628;SDS011;4352;49.404;11.092;2022-09-09T14:02:10;2.53;;;0.97;;
8628;SDS011;4352;49.404;11.092;2022-09-09T14:04:37;3.13;;;1.20;;
8628;SDS011;4352;49.404;11.092;2022-09-09T14:07:07;1.47;;;0.90;;
8628;SDS011;4352;49.404;11.092;2022-09-09T14:09:35;1.53;;;1.10;;
8628;SDS011;4352;49.404;11.092;2022-09-09T14:12:02;1.50;;;1.00;;
8628;SDS011;4352;49.404;11.092;2022-09-09T14:14:30;1.60;;;0.80;;
8628;SDS011;4352;49.404;11.092;2022-09-09T14:16:57;2.10;;;1.00;;
8628;SDS011;4352;49.404;11.092;2022-09-09T14:19:24;1.97;;;1.00;;
8628;SDS011;4352;49.404;11.092;2022-09-09T14:21:51;2.80;;;0.83;;
8628;SDS011;4352;49.404;11.092;2022-09-09T14:24:20;3.67;;;1.20;;
8628;SDS011;4352;49.404;11.092;2022-09-09T14:26:47;7.27;;;1.70;;
8628;SDS011;4352;49.404;11.092;2022-09-09T14:29:15;5.50;;;1.30;;
8628;SDS011;4352;49.404;11.092;2022-09-09T14:31:42;6.47;;;1.57;;
8628;SDS011;4352;49.404;11.092;2022-09-09T14:34:09;4.07;;;1.37;;
8628;SDS011;4352;49.404;11.092;2022-09-09T14:36:36;1.70;;;1.13;;
8628;SDS011;4352;49.404;11.092;2022-09-09T14:39:03;3.97;;;1.37;;
8628;SDS011;4352;49.404;11.092;2022-09-09T14:41:32;4.23;;;1.30;;
8628;SDS011;4352;49.404;11.092;2022-09-09T14:43:59;4.17;;;1.53;;
8628;SDS011;4352;49.404;11.092;2022-09-09T14:46:26;8.00;;;1.93;;
8628;SDS011;4352;49.404;11.092;2022-09-09T14:48:53;5.83;;;1.40;;
8628;SDS011;4352;49.404;11.092;2022-09-09T14:51:22;5.23;;;1.60;;
8628;SDS011;4352;49.404;11.092;2022-09-09T14:53:50;4.30;;;1.30;;
8628;SDS011;4352;49.404;11.092;2022-09-09T14:56:18;4.77;;;1.30;;
8628;SDS011;4352;49.404;11.092;2022-09-09T14:58:48;4.17;;;1.30;;
8628;SDS011;4352;49.404;11.092;2022-09-09T15:01:16;5.50;;;1.27;;
8628;SDS011;4352;49.404;11.092;2022-09-09T15:03:48;2.07;;;1.30;;
8628;SDS011;4352;49.404;11.092;2022-09-09T15:06:15;4.33;;;1.50;;
8628;SDS011;4352;49.404;11.092;2022-09-09T15:08:43;3.63;;;1.40;;
8628;SDS011;4352;49.404;11.092;2022-09-09T15:11:11;3.60;;;1.23;;
8628;SDS011;4352;49.404;11.092;2022-09-09T15:13:39;4.37;;;1.67;;
8628;SDS011;4352;49.404;11.092;2022-09-09T15:16:09;1.97;;;1.30;;
8628;SDS011;4352;49.404;11.092;2022-09-09T15:18:36;6.80;;;1.43;;
8628;SDS011;4352;49.404;11.092;2022-09-09T15:21:08;4.63;;;1.90;;
8628;SDS011;4352;49.404;11.092;2022-09-09T15:23:35;5.87;;;1.70;;